Time;durP1;ratioP1;P1;durP2;ratioP2;P2;SDS_P1;SDS_P2;PMS_P1;PMS_P2;Temp;Humidity;BMP_temperature;BMP_pressure;BME280_temperature;BME280_humidity;BME280_pressure;Samples;Min_cycle;Max_cycle;Signal;HPM_P1;HPM_P2
2024/02/24 00:01:07;;;;;;;12.30;9.60;;;;;;;7.19;100.00;101363.40;105825;1257;72697;-59
2024/02/24 00:03:35;;;;;;;17.40;11.80;;;;;;;7.18;100.00;101364.30;106635;1260;61609;-60
2024/02/24 00:06:02;;;;;;;14.20;10.50;;;;;;;7.16;100.00;101359.84;105959;1257;60038;-60
2024/02/24 00:08:29;;;;;;;15.30;10.10;;;;;;;7.15;100.00;101360.73;105937;1260;73647;-60
2024/02/24 00:10:57;;;;;;;17.30;11.10;;;;;;;7.15;100.00;101363.09;105877;1263;67546;-59
2024/02/24 00:13:24;;;;;;;17.00;10.30;;;;;;;7.14;100.00;101358.63;105932;1260;72450;-59
2024/02/24 00:15:51;;;;;;;12.20;10.30;;;;;;;7.14;100.00;101357.73;105917;1260;61652;-59
2024/02/24 00:18:19;;;;;;;18.90;10.80;;;;;;;7.14;100.00;101359.53;105823;1257;59955;-60
2024/02/24 00:20:47;;;;;;;10.30;8.00;;;;;;;7.14;100.00;101360.77;106000;1260;73162;-60
2024/02/24 00:23:14;;;;;;;15.90;9.70;;;;;;;7.15;100.00;101357.88;105989;1257;67480;-59
2024/02/24 00:25:41;;;;;;;16.10;10.20;;;;;;;7.14;100.00;101358.27;105910;1262;71486;-58
2024/02/24 00:28:09;;;;;;;10.90;8.70;;;;;;;7.14;100.00;101358.80;105962;1261;61737;-59
2024/02/24 00:30:37;;;;;;;12.30;9.10;;;;;;;7.14;100.00;101356.67;106011;1260;60409;-58
2024/02/24 00:33:04;;;;;;;11.70;9.00;;;;;;;7.14;100.00;101359.35;105888;1272;73136;-59
2024/02/24 00:35:31;;;;;;;15.80;8.50;;;;;;;7.14;100.00;101360.60;105942;1262;65875;-59
2024/02/24 00:37:59;;;;;;;11.30;9.00;;;;;;;7.15;100.00;101356.81;106001;1262;71483;-60
2024/02/24 00:40:26;;;;;;;12.60;9.00;;;;;;;7.16;100.00;101354.66;105853;1261;60451;-59
2024/02/24 00:42:53;;;;;;;16.20;9.10;;;;;;;7.16;100.00;101357.70;105942;1260;60074;-59
2024/02/24 00:45:21;;;;;;;13.90;9.20;;;;;;;7.15;100.00;101353.42;105933;1257;73190;-60
2024/02/24 00:47:48;;;;;;;15.00;9.40;;;;;;;7.14;100.00;101355.23;105891;1257;68419;-59
2024/02/24 00:50:16;;;;;;;14.70;8.90;;;;;;;7.14;100.00;101353.10;106016;1261;70472;-58
2024/02/24 00:52:43;;;;;;;10.20;8.00;;;;;;;7.14;100.00;101354.17;106245;1257;62196;-60
2024/02/24 00:55:11;;;;;;;13.60;8.30;;;;;;;7.13;100.00;101357.02;105860;1257;60150;-59
2024/02/24 00:57:38;;;;;;;12.10;8.00;;;;;;;7.14;100.00;101353.81;105978;1261;73114;-60
2024/02/24 01:00:06;;;;;;;10.10;6.80;;;;;;;7.15;100.00;101356.83;105915;1257;66953;-60
2024/02/24 01:02:33;;;;;;;11.20;6.90;;;;;;;7.15;100.00;101357.71;106460;1257;71398;-60
2024/02/24 01:05:01;;;;;;;11.40;7.40;;;;;;;7.15;100.00;101364.13;105922;1262;60499;-60
2024/02/24 01:07:28;;;;;;;9.00;7.20;;;;;;;7.16;100.00;101365.02;105867;1260;59641;-60
2024/02/24 01:09:55;;;;;;;10.90;7.30;;;;;;;7.18;100.00;101362.14;105894;1272;73040;-61
2024/02/24 01:12:23;;;;;;;10.60;8.20;;;;;;;7.18;100.00;101356.08;106026;1263;67026;-61
2024/02/24 01:14:51;;;;;;;11.70;7.20;;;;;;;7.18;100.00;101357.86;105875;1257;70442;-59
2024/02/24 01:17:22;;;;;;;11.60;8.50;;;;;;;7.18;100.00;101361.45;106243;1257;62104;-61
2024/02/24 01:19:50;;;;;;;13.80;7.40;;;;;;;7.19;100.00;101358.39;105869;1262;60466;-59
2024/02/24 01:22:17;;;;;;;8.00;7.10;;;;;;;7.20;100.00;101357.50;105879;1262;72626;-59
2024/02/24 01:24:45;;;;;;;9.60;7.60;;;;;;;7.19;100.00;101358.04;105836;1257;65334;-59
2024/02/24 01:27:12;;;;;;;9.10;7.90;;;;;;;7.17;100.00;101359.65;105871;1257;72002;-60
2024/02/24 01:29:39;;;;;;;11.60;8.30;;;;;;;7.15;100.00;101357.00;105971;1257;61050;-58
2024/02/24 01:32:06;;;;;;;13.30;8.00;;;;;;;7.13;100.00;101355.06;105934;1257;60490;-58
2024/02/24 01:34:34;;;;;;;9.50;7.70;;;;;;;7.11;100.00;101354.90;105786;1257;73930;-58
2024/02/24 01:37:01;;;;;;;11.90;8.00;;;;;;;7.11;100.00;101358.11;105834;1257;68417;-58
2024/02/24 01:39:31;;;;;;;9.20;7.10;;;;;;;7.08;100.00;101354.55;105981;1257;71488;-58
2024/02/24 01:41:58;;;;;;;14.20;7.70;;;;;;;7.07;100.00;101350.98;106067;1264;61937;-58
2024/02/24 01:44:25;;;;;;;12.70;7.10;;;;;;;7.06;100.00;101349.23;105887;1262;60770;-58
2024/02/24 01:46:53;;;;;;;10.10;7.70;;;;;;;7.06;100.00;101347.28;105818;1257;73896;-59
2024/02/24 01:49:20;;;;;;;9.70;6.60;;;;;;;7.05;100.00;101349.97;105810;1257;66774;-59
2024/02/24 01:51:47;;;;;;;10.60;6.90;;;;;;;7.04;100.00;101345.15;106139;1262;71431;-59
2024/02/24 01:54:15;;;;;;;10.50;6.80;;;;;;;7.05;100.00;101352.11;105952;1263;61768;-58
2024/02/24 01:56:42;;;;;;;10.00;6.90;;;;;;;7.06;100.00;101349.59;105804;1265;60542;-59
2024/02/24 01:59:10;;;;;;;10.90;6.90;;;;;;;7.05;100.00;101351.56;105904;1257;72853;-59
2024/02/24 02:01:38;;;;;;;11.40;7.00;;;;;;;7.04;100.00;101353.00;108577;1257;65208;-57
2024/02/24 02:04:05;;;;;;;14.50;8.00;;;;;;;7.02;100.00;101348.18;108720;1257;72756;-58
2024/02/24 02:06:32;;;;;;;11.20;6.70;;;;;;;7.00;100.00;101340.52;106802;1262;61866;-57
2024/02/24 02:09:00;;;;;;;9.70;7.40;;;;;;;6.98;100.00;101340.37;108741;1256;59540;-58
2024/02/24 02:11:27;;;;;;;8.10;6.20;;;;;;;6.98;100.00;101334.48;108781;1256;73855;-58
2024/02/24 02:13:55;;;;;;;8.20;6.40;;;;;;;6.98;100.00;101331.98;108870;1256;65794;-59
2024/02/24 02:16:22;;;;;;;12.70;6.30;;;;;;;6.98;100.00;101331.45;108858;1256;71415;-59
2024/02/24 02:18:49;;;;;;;8.40;6.10;;;;;;;6.96;100.00;101325.77;108314;1257;62411;-58
2024/02/24 02:21:16;;;;;;;12.90;6.90;;;;;;;6.97;100.00;101324.70;105940;1258;61295;-61
2024/02/24 02:23:44;;;;;;;7.90;5.60;;;;;;;6.98;100.00;101324.48;105888;1257;73832;-57
2024/02/24 02:26:13;;;;;;;9.90;7.30;;;;;;;6.96;100.00;101325.59;108723;1256;66127;-57
2024/02/24 02:28:41;;;;;;;7.50;6.20;;;;;;;6.95;100.00;101324.88;108824;1257;71345;-58
2024/02/24 02:31:08;;;;;;;12.10;5.20;;;;;;;6.94;100.00;101329.70;108802;1261;60092;-58
2024/02/24 02:33:35;;;;;;;7.40;5.90;;;;;;;6.91;100.00;101323.65;108810;1256;58788;-59
2024/02/24 02:36:03;;;;;;;5.70;4.50;;;;;;;6.89;100.00;101323.31;108870;1257;74667;-56
2024/02/24 02:38:30;;;;;;;9.50;5.60;;;;;;;6.88;100.00;101327.61;108748;1256;66025;-59
2024/02/24 02:40:58;;;;;;;9.40;5.50;;;;;;;6.88;100.00;101330.48;108873;1256;72951;-59
2024/02/24 02:43:25;;;;;;;5.50;5.00;;;;;;;6.88;100.00;101332.08;108651;1256;61740;-57
2024/02/24 02:45:52;;;;;;;10.50;5.60;;;;;;;6.87;100.00;101332.80;105937;1262;60397;-57
2024/02/24 02:48:20;;;;;;;5.50;4.80;;;;;;;6.87;100.00;101333.15;105889;1257;73976;-58
2024/02/24 02:50:47;;;;;;;6.50;4.80;;;;;;;6.88;100.00;101346.00;105822;1262;65668;-57
2024/02/24 02:53:14;;;;;;;6.40;5.40;;;;;;;6.88;100.00;101352.60;106590;1257;73275;-58
2024/02/24 02:55:42;;;;;;;9.60;6.60;;;;;;;6.88;100.00;101346.36;106005;1257;60552;-56
2024/02/24 02:58:11;;;;;;;10.00;5.70;;;;;;;6.87;100.00;101342.08;105890;1257;60542;-57
2024/02/24 03:00:38;;;;;;;11.80;6.40;;;;;;;6.85;100.00;101341.91;105876;1256;73868;-60
2024/02/24 03:03:06;;;;;;;10.80;6.20;;;;;;;6.83;100.00;101335.14;106274;1260;66194;-54
2024/02/24 03:05:33;;;;;;;13.30;6.30;;;;;;;6.82;100.00;101335.67;105862;1263;71327;-55
2024/02/24 03:08:00;;;;;;;10.70;6.10;;;;;;;6.81;100.00;101336.39;105876;1257;61735;-58
2024/02/24 03:10:28;;;;;;;11.00;6.60;;;;;;;6.81;100.00;101338.89;105921;1260;59836;-58
2024/02/24 03:12:55;;;;;;;11.60;6.00;;;;;;;6.82;100.00;101331.04;106864;1257;71775;-57
2024/02/24 03:15:22;;;;;;;11.70;6.00;;;;;;;6.83;100.00;101334.23;105898;1260;67091;-58
2024/02/24 03:17:49;;;;;;;6.90;5.00;;;;;;;6.85;100.00;101336.02;105856;1257;72721;-56
2024/02/24 03:20:17;;;;;;;7.70;5.90;;;;;;;6.85;100.00;101344.77;105819;1257;60552;-56
2024/02/24 03:22:44;;;;;;;9.70;6.30;;;;;;;6.82;100.00;101348.16;105876;1267;60266;-60
2024/02/24 03:25:12;;;;;;;11.10;6.40;;;;;;;6.81;100.00;101350.86;105971;1263;74764;-55
2024/02/24 03:27:39;;;;;;;10.50;6.90;;;;;;;6.79;100.00;101353.55;105955;1263;65792;-57
2024/02/24 03:30:07;;;;;;;8.90;6.80;;;;;;;6.77;100.00;101355.36;106156;1260;71697;-56
2024/02/24 03:32:34;;;;;;;10.20;6.90;;;;;;;6.76;100.00;101350.90;105945;1257;60699;-56
2024/02/24 03:35:03;;;;;;;8.70;6.10;;;;;;;6.75;100.00;101344.65;105882;1257;60495;-55
2024/02/24 03:37:30;;;;;;;14.20;6.60;;;;;;;6.74;100.00;101344.84;105894;1257;72657;-57
2024/02/24 03:39:58;;;;;;;10.40;6.90;;;;;;;6.72;100.00;101345.93;106181;1258;68335;-56
2024/02/24 03:42:25;;;;;;;10.90;6.40;;;;;;;6.73;100.00;101345.39;105984;1257;72480;-57
2024/02/24 03:44:53;;;;;;;11.20;6.40;;;;;;;6.71;100.00;101351.48;105929;1263;60936;-56
2024/02/24 03:47:20;;;;;;;10.40;6.30;;;;;;;6.71;100.00;101348.81;105801;1257;60875;-56
2024/02/24 03:49:47;;;;;;;7.60;5.80;;;;;;;6.72;100.00;101350.73;106172;1257;72978;-56
2024/02/24 03:52:15;;;;;;;10.70;6.20;;;;;;;6.73;100.00;101355.36;106250;1263;66232;-53
2024/02/24 03:54:42;;;;;;;10.70;6.50;;;;;;;6.73;100.00;101353.94;105804;1258;72766;-57
2024/02/24 03:57:09;;;;;;;12.60;5.90;;;;;;;6.71;100.00;101353.63;105850;1260;61373;-57
2024/02/24 03:59:37;;;;;;;9.80;6.70;;;;;;;6.69;100.00;101354.16;105959;1263;60575;-56
2024/02/24 04:02:04;;;;;;;9.20;5.80;;;;;;;6.67;100.00;101351.85;106312;1262;73868;-60
2024/02/24 04:04:32;;;;;;;10.70;5.90;;;;;;;6.64;100.00;101343.83;106290;1261;70160;-54
2024/02/24 04:06:59;;;;;;;6.90;6.10;;;;;;;6.63;100.00;101341.55;105933;1257;71610;-57
2024/02/24 04:09:26;;;;;;;8.30;5.90;;;;;;;6.63;100.00;101348.15;105957;1260;61762;-57
2024/02/24 04:11:54;;;;;;;8.50;6.20;;;;;;;6.62;100.00;101348.52;105901;1262;60540;-56
2024/02/24 04:14:21;;;;;;;9.20;5.40;;;;;;;6.64;100.00;101353.83;105914;1260;71733;-55
2024/02/24 04:16:48;;;;;;;7.90;5.50;;;;;;;6.64;100.00;101350.08;106069;1262;67047;-57
2024/02/24 04:19:16;;;;;;;10.20;6.30;;;;;;;6.64;100.00;101352.22;105875;1260;71737;-56
2024/02/24 04:21:43;;;;;;;6.70;5.30;;;;;;;6.62;100.00;101353.33;105898;1258;61014;-57
2024/02/24 04:24:10;;;;;;;7.90;5.70;;;;;;;6.61;100.00;101351.19;105902;1257;59191;-56
2024/02/24 04:26:38;;;;;;;15.20;6.60;;;;;;;6.60;100.00;101344.95;105938;1263;74245;-58
2024/02/24 04:29:06;;;;;;;12.10;6.70;;;;;;;6.59;100.00;101347.27;106448;1260;65477;-56
2024/02/24 04:31:33;;;;;;;8.20;5.80;;;;;;;6.57;100.00;101349.42;107281;1260;72697;-57
2024/02/24 04:34:01;;;;;;;7.80;5.80;;;;;;;6.56;100.00;101347.98;106428;1257;60891;-57
2024/02/24 04:36:28;;;;;;;9.20;5.60;;;;;;;6.56;100.00;101342.81;107528;1257;60247;-56
2024/02/24 04:38:56;;;;;;;8.50;5.90;;;;;;;6.56;100.00;101350.13;105956;1260;74435;-57
2024/02/24 04:41:23;;;;;;;14.20;6.50;;;;;;;6.58;100.00;101353.16;105962;1263;64744;-58
2024/02/24 04:43:50;;;;;;;9.80;5.50;;;;;;;6.59;100.00;101352.27;105861;1263;71457;-55
2024/02/24 04:46:17;;;;;;;7.00;5.10;;;;;;;6.59;100.00;101354.41;105870;1262;60421;-55
2024/02/24 04:48:45;;;;;;;9.10;6.00;;;;;;;6.58;100.00;101351.02;105926;1262;60325;-56
2024/02/24 04:51:12;;;;;;;8.30;5.20;;;;;;;6.56;100.00;101352.10;106066;1257;72803;-57
2024/02/24 04:53:40;;;;;;;6.40;4.90;;;;;;;6.54;100.00;101354.09;106092;1258;65816;-56
2024/02/24 04:56:09;;;;;;;5.80;5.20;;;;;;;6.52;100.00;101353.92;106076;1258;73127;-61
2024/02/24 04:58:37;;;;;;;10.40;5.10;;;;;;;6.50;100.00;101356.61;105939;1262;60787;-55
2024/02/24 05:01:04;;;;;;;8.50;5.40;;;;;;;6.48;100.00;101353.22;106065;1258;63288;-56
2024/02/24 05:03:31;;;;;;;9.10;5.30;;;;;;;6.46;100.00;101349.86;106107;1258;73923;-55
2024/02/24 05:05:58;;;;;;;7.30;4.60;;;;;;;6.44;100.00;101347.38;106044;1261;65766;-57
2024/02/24 05:08:26;;;;;;;4.70;4.30;;;;;;;6.44;100.00;101350.95;106116;1260;72628;-59
2024/02/24 05:10:54;;;;;;;5.90;4.00;;;;;;;6.44;100.00;101353.97;106113;1254;60444;-55
2024/02/24 05:13:21;;;;;;;8.90;4.70;;;;;;;6.44;100.00;101355.75;106114;1257;61352;-57
2024/02/24 05:15:48;;;;;;;6.70;4.60;;;;;;;6.43;100.00;101361.82;106092;1268;73294;-54
2024/02/24 05:18:15;;;;;;;8.30;5.40;;;;;;;6.43;100.00;101367.35;106090;1258;65848;-55
2024/02/24 05:20:43;;;;;;;11.60;5.00;;;;;;;6.43;100.00;101366.64;106186;1259;72714;-56
2024/02/24 05:23:10;;;;;;;7.80;4.80;;;;;;;6.43;100.00;101365.39;106064;1260;60955;-56
2024/02/24 05:25:38;;;;;;;8.70;4.60;;;;;;;6.43;100.00;101369.48;106131;1260;60678;-57
2024/02/24 05:28:05;;;;;;;7.70;4.70;;;;;;;6.44;100.00;101367.53;106170;1260;72633;-57
2024/02/24 05:30:32;;;;;;;5.70;4.50;;;;;;;6.44;100.00;101372.88;106069;1268;65825;-58
2024/02/24 05:32:59;;;;;;;4.60;4.00;;;;;;;6.46;100.00;101374.45;106081;1268;72775;-58
2024/02/24 05:35:27;;;;;;;5.80;4.00;;;;;;;6.48;100.00;101375.69;106078;1260;62719;-53
2024/02/24 05:37:54;;;;;;;7.40;4.10;;;;;;;6.48;100.00;101381.58;106202;1260;61395;-56
2024/02/24 05:40:22;;;;;;;6.10;4.60;;;;;;;6.49;100.00;101387.64;106078;1253;73823;-59
2024/02/24 05:42:49;;;;;;;8.80;4.10;;;;;;;6.47;100.00;101387.29;106130;1259;66739;-57
2024/02/24 05:45:17;;;;;;;6.50;3.20;;;;;;;6.46;100.00;101390.16;106028;1258;72699;-57
2024/02/24 05:47:44;;;;;;;4.80;3.70;;;;;;;6.46;100.00;101394.80;106050;1257;61825;-57
2024/02/24 05:50:12;;;;;;;6.60;3.50;;;;;;;6.46;100.00;101391.94;106138;1253;60282;-56
2024/02/24 05:52:39;;;;;;;4.60;3.30;;;;;;;6.48;100.00;101395.31;106079;1269;75475;-56
2024/02/24 05:55:09;;;;;;;5.00;2.70;;;;;;;6.49;100.00;101395.84;106066;1268;65823;-57
2024/02/24 05:57:37;;;;;;;4.30;3.10;;;;;;;6.51;100.00;101405.83;106050;1259;72488;-58
2024/02/24 06:00:10;;;;;;;5.30;3.30;;;;;;;6.53;100.00;101408.67;106055;1254;60451;-56
2024/02/24 06:02:38;;;;;;;3.40;2.80;;;;;;;6.56;100.00;101417.91;106706;1257;60173;-58
2024/02/24 06:05:06;;;;;;;8.50;4.10;;;;;;;6.57;100.00;101413.80;106813;1259;71954;-56
2024/02/24 06:07:50;;;;;;;9.70;4.50;;;;;;;6.59;100.00;101491.73;102450;1307;601196;-55
2024/02/24 06:10:20;;;;;;;8.20;3.40;;;;;;;6.59;100.00;101548.65;105190;1272;60936;-57
2024/02/24 06:12:47;;;;;;;6.20;3.70;;;;;;;6.60;100.00;101526.00;105143;1268;60166;-59
2024/02/24 06:15:14;;;;;;;6.40;3.50;;;;;;;6.61;100.00;101506.55;105174;1272;73023;-57
2024/02/24 06:17:42;;;;;;;6.30;3.10;;;;;;;6.65;100.00;101505.98;105076;1268;66221;-58
2024/02/24 06:20:09;;;;;;;6.90;3.30;;;;;;;6.68;100.00;101508.13;105224;1267;71843;-58
2024/02/24 06:22:37;;;;;;;3.60;2.70;;;;;;;6.71;100.00;101507.58;107279;1265;213498;-57
2024/02/24 06:25:05;;;;;;;8.30;4.20;;;;;;;6.73;100.00;101505.59;105332;1265;60511;-57
2024/02/24 06:27:32;;;;;;;5.90;4.00;;;;;;;6.77;100.00;101502.55;105876;1259;72898;-59
2024/02/24 06:29:59;;;;;;;5.50;3.60;;;;;;;6.78;100.00;101497.55;105789;1263;66901;-53
2024/02/24 06:32:26;;;;;;;4.20;3.60;;;;;;;6.79;100.00;101497.91;105809;1271;72735;-56
2024/02/24 06:34:54;;;;;;;7.40;3.50;;;;;;;6.81;100.00;101495.92;105840;1259;63243;-55
2024/02/24 06:37:21;;;;;;;6.30;3.50;;;;;;;6.81;100.00;101497.70;106388;1259;60688;-55
2024/02/24 06:39:49;;;;;;;6.50;2.50;;;;;;;6.82;100.00;101494.48;105781;1264;72421;-55
2024/02/24 06:42:16;;;;;;;5.90;2.90;;;;;;;6.83;100.00;101495.02;105808;1263;66937;-57
2024/02/24 06:44:43;;;;;;;5.90;3.30;;;;;;;6.84;100.00;101495.20;105806;1262;74986;-56
2024/02/24 06:47:11;;;;;;;5.30;2.80;;;;;;;6.86;100.00;101497.16;105804;1258;60309;-56
2024/02/24 06:49:54;;;;;;;7.30;3.60;;;;;;;6.88;100.00;101502.51;105816;1274;59573;-58
2024/02/24 06:52:22;;;;;;;6.00;3.40;;;;;;;6.89;100.00;101493.55;105862;1263;70793;-57
2024/02/24 06:54:51;;;;;;;4.10;3.60;;;;;;;6.91;100.00;101490.69;105882;1262;67746;-58
2024/02/24 06:57:18;;;;;;;5.30;3.10;;;;;;;6.93;100.00;101491.04;105878;1266;73215;-57
2024/02/24 06:59:46;;;;;;;4.30;3.20;;;;;;;6.94;100.00;101491.94;105831;1265;60430;-56
2024/02/24 07:02:14;;;;;;;6.40;2.40;;;;;;;6.97;100.00;101497.11;105836;1265;60557;-56
2024/02/24 07:04:42;;;;;;;5.50;2.70;;;;;;;6.99;100.00;101494.39;105916;1264;71853;-56
2024/02/24 07:07:09;;;;;;;6.00;3.50;;;;;;;7.03;100.00;101495.63;107305;1263;66938;-56
2024/02/24 07:09:37;;;;;;;6.00;2.50;;;;;;;7.07;100.00;101495.77;105986;1263;71470;-57
2024/02/24 07:12:05;;;;;;;5.40;3.20;;;;;;;7.11;100.00;101495.04;106073;1264;59927;-59
2024/02/24 07:14:34;;;;;;;6.10;3.10;;;;;;;7.13;100.00;101493.24;105854;1259;59780;-56
2024/02/24 07:17:02;;;;;;;7.00;2.20;;;;;;;7.15;100.00;101493.40;105837;1264;73383;-56
2024/02/24 07:19:29;;;;;;;3.70;2.70;;;;;;;7.16;100.00;101498.91;105761;1262;67149;-60
2024/02/24 07:21:57;;;;;;;5.10;3.50;;;;;;;7.18;100.00;101501.41;107100;1259;72417;-56
2024/02/24 07:24:24;;;;;;;5.70;3.30;;;;;;;7.20;100.00;101504.08;105535;1269;62428;-54
2024/02/24 07:26:51;;;;;;;4.00;2.60;;;;;;;7.23;100.00;101500.66;105680;1259;59806;-60
2024/02/24 07:29:19;;;;;;;4.20;3.30;;;;;;;7.27;100.00;101500.64;106194;1264;71845;-57
2024/02/24 07:31:47;;;;;;;4.90;3.20;;;;;;;7.31;100.00;101505.42;105637;1264;67714;-56
2024/02/24 07:34:14;;;;;;;5.80;3.30;;;;;;;7.34;100.00;101506.83;107450;1263;73586;-58
2024/02/24 07:36:42;;;;;;;4.30;3.00;;;;;;;7.35;100.00;101500.92;105678;1265;60620;-60
2024/02/24 07:39:09;;;;;;;5.00;3.10;;;;;;;7.37;100.00;101500.21;105734;1259;60248;-59
2024/02/24 07:41:41;;;;;;;3.20;2.90;;;;;;;7.38;100.00;101496.46;105679;1264;73420;-57
2024/02/24 07:44:08;;;;;;;3.70;2.10;;;;;;;7.39;100.00;101491.43;106676;1263;65680;-58
2024/02/24 07:46:36;;;;;;;5.90;2.50;;;;;;;7.42;100.00;101483.20;105719;1264;72456;-60
2024/02/24 07:49:03;;;;;;;5.40;2.40;;;;;;;7.45;100.00;101477.64;105748;1259;60620;-55
2024/02/24 07:51:30;;;;;;;4.60;1.90;;;;;;;7.50;100.00;101476.70;106406;1260;59725;-55
2024/02/24 07:53:58;;;;;;;4.30;2.40;;;;;;;7.53;100.00;101484.00;105633;1263;73165;-55
2024/02/24 07:56:27;;;;;;;5.10;2.50;;;;;;;7.57;100.00;101492.36;105657;1263;65645;-54
2024/02/24 07:58:54;;;;;;;3.20;2.60;;;;;;;7.60;100.00;101494.66;106116;1263;71867;-56
2024/02/24 08:01:21;;;;;;;8.90;3.00;;;;;;;7.62;100.00;101491.44;105796;1260;62172;-56
2024/02/24 08:03:49;;;;;;;4.10;2.20;;;;;;;7.66;100.00;101494.08;105816;1274;59643;-55
2024/02/24 08:06:16;;;;;;;4.10;1.80;;;;;;;7.69;100.00;101496.55;105789;1263;75588;-54
2024/02/24 08:08:43;;;;;;;4.10;1.70;;;;;;;7.73;100.00;101504.92;105823;1263;66983;-56
2024/02/24 08:11:11;;;;;;;2.70;1.90;;;;;;;7.78;100.00;101507.90;105718;1264;70505;-60
2024/02/24 08:13:41;;;;;;;3.20;2.30;;;;;;;7.83;100.00;101508.22;105739;1261;60228;-58
2024/02/24 08:16:09;;;;;;;6.00;2.90;;;;;;;7.87;100.00;101528.20;105710;1260;59619;-55
2024/02/24 08:18:36;;;;;;;4.80;2.10;;;;;;;7.91;100.00;101528.16;105510;1265;73044;-56
2024/02/24 08:21:06;;;;;;;3.40;1.70;;;;;;;7.93;100.00;101526.70;105841;1264;67833;-57
2024/02/24 08:23:36;;;;;;;3.20;1.90;;;;;;;7.96;100.00;101536.16;108612;1259;71333;-57
2024/02/24 08:26:04;;;;;;;2.70;1.80;;;;;;;8.00;100.00;101533.62;106141;1260;60541;-56
2024/02/24 08:28:31;;;;;;;4.00;2.70;;;;;;;8.03;100.00;101532.34;108654;1259;58875;-58
2024/02/24 08:30:59;;;;;;;4.20;1.90;;;;;;;8.05;100.00;101536.44;108719;1259;72364;-57
2024/02/24 08:33:27;;;;;;;3.00;2.10;;;;;;;8.08;100.00;101537.13;108663;1259;65521;-55
2024/02/24 08:35:54;;;;;;;3.20;2.50;;;;;;;8.09;100.00;101540.13;108577;1259;71626;-58
2024/02/24 08:38:22;;;;;;;4.10;2.10;;;;;;;8.10;100.00;101539.77;108578;1259;58797;-59
2024/02/24 08:40:49;;;;;;;4.40;2.30;;;;;;;8.12;100.00;101540.65;108685;1259;59094;-57
2024/02/24 08:43:16;;;;;;;11.80;3.40;;;;;;;8.13;100.00;101545.30;108614;1263;72331;-57
2024/02/24 08:45:44;;;;;;;3.40;2.30;;;;;;;8.15;100.00;101541.89;108653;1259;66853;-56
2024/02/24 08:48:12;;;;;;;7.30;5.60;;;;;;;8.16;100.00;101544.54;108406;1259;71474;-58
2024/02/24 08:50:40;;;;;;;14.50;11.10;;;;;;;8.19;100.00;101544.69;106190;1272;62218;-56
2024/02/24 08:53:08;;;;;;;24.70;19.10;;;;;;;8.22;100.00;101549.14;105721;1274;60671;-56
2024/02/24 08:55:35;;;;;;;7.50;4.70;;;;;;;8.26;100.00;101551.95;105737;1263;73837;-58
2024/02/24 08:58:03;;;;;;;20.70;15.10;;;;;;;8.29;100.00;101563.90;105728;1261;66873;-57
2024/02/24 09:00:31;;;;;;;10.70;7.60;;;;;;;8.32;100.00;101569.46;105682;1275;73279;-56
2024/02/24 09:02:58;;;;;;;9.10;7.70;;;;;;;8.33;100.00;101572.13;108621;1259;60059;-58
2024/02/24 09:05:25;;;;;;;4.50;3.80;;;;;;;8.34;100.00;101573.91;106424;1265;59778;-58
2024/02/24 09:07:53;;;;;;;8.80;6.00;;;;;;;8.33;100.00;101574.83;106973;1263;72156;-57
2024/02/24 09:10:20;;;;;;;13.10;9.50;;;;;;;8.33;100.00;101579.48;105727;1265;66183;-56
2024/02/24 09:12:48;;;;;;;6.60;4.50;;;;;;;8.35;100.00;101578.36;105706;1263;72430;-56
2024/02/24 09:15:15;;;;;;;9.80;6.90;;;;;;;8.37;100.00;101583.19;105747;1263;60257;-55
2024/02/24 09:17:42;;;;;;;8.30;5.40;;;;;;;8.39;100.00;101585.31;105591;1272;59640;-54
2024/02/24 09:20:11;;;;;;;8.00;3.20;;;;;;;8.42;100.00;101584.56;106010;1263;71843;-55
2024/02/24 09:25:43;;;;;;;4.70;2.80;;;;;;;8.47;100.00;101671.27;102917;1292;600423;-56
2024/02/24 09:28:11;;;;;;;3.70;2.40;;;;;;;8.48;100.00;101738.73;105501;1266;60465;-56
2024/02/24 09:30:38;;;;;;;3.70;2.40;;;;;;;8.49;100.00;101714.58;105336;1269;60628;-56
2024/02/24 09:33:05;;;;;;;8.50;2.80;;;;;;;8.49;100.00;101701.87;105314;1272;71050;-55
2024/02/24 09:35:33;;;;;;;7.40;2.80;;;;;;;8.52;100.00;101688.58;106014;1266;68162;-57
2024/02/24 09:38:01;;;;;;;6.00;2.70;;;;;;;8.56;100.00;101677.29;105411;1270;71749;-57
2024/02/24 09:40:28;;;;;;;3.50;2.60;;;;;;;8.60;100.00;101672.94;105253;1271;175253;-54
2024/02/24 09:43:03;;;;;;;4.30;2.50;;;;;;;8.64;100.00;101668.43;105386;1267;59282;-56
2024/02/24 09:45:35;;;;;;;4.60;2.00;;;;;;;8.69;100.00;101675.35;105301;1268;71998;-57
2024/02/24 09:48:03;;;;;;;7.80;3.60;;;;;;;8.75;100.00;101673.34;105661;1267;65280;-57
2024/02/24 09:50:31;;;;;;;3.30;2.40;;;;;;;8.80;100.00;101673.10;105644;1264;70772;-58
2024/02/24 09:52:58;;;;;;;13.80;6.50;;;;;;;8.86;100.00;101682.70;105485;1264;61020;-56
2024/02/24 09:55:26;;;;;;;11.20;6.70;;;;;;;8.94;100.00;101690.31;105347;1268;59502;-56
2024/02/24 09:57:54;;;;;;;22.00;17.40;;;;;;;9.00;100.00;101694.36;105315;1275;73141;-55
2024/02/24 10:00:25;;;;;;;8.60;5.90;;;;;;;9.07;100.00;101697.87;105300;1269;65836;-55
2024/02/24 10:02:52;;;;;;;7.20;5.30;;;;;;;9.10;100.00;101705.53;105330;1266;71610;-57
2024/02/24 10:05:19;;;;;;;8.60;4.70;;;;;;;9.14;100.00;101707.46;105384;1263;60482;-59
2024/02/24 10:07:47;;;;;;;6.10;2.90;;;;;;;9.17;100.00;101709.23;105421;1268;60176;-55
2024/02/24 10:10:16;;;;;;;6.10;3.20;;;;;;;9.18;100.00;101708.15;105523;1273;71826;-55
2024/02/24 10:12:57;;;;;;;7.90;4.70;;;;;;;9.19;100.00;101700.77;105571;1260;66952;-56
2024/02/24 10:15:25;;;;;;;13.20;9.50;;;;;;;9.19;100.00;101705.79;105587;1271;71554;-55
2024/02/24 10:17:53;;;;;;;8.60;4.10;;;;;;;9.21;100.00;101700.75;105626;1265;60948;-58
2024/02/24 10:20:21;;;;;;;9.20;6.40;;;;;;;9.24;100.00;101701.26;107535;1259;59073;-59
2024/02/24 10:22:49;;;;;;;5.60;3.30;;;;;;;9.29;100.00;101707.45;105659;1265;73074;-56
2024/02/24 10:25:16;;;;;;;27.80;17.70;;;;;;;9.33;100.00;101714.95;105557;1262;66729;-57
2024/02/24 10:27:44;;;;;;;32.20;19.50;;;;;;;9.35;100.00;101722.44;105537;1263;71471;-54
2024/02/24 10:30:12;;;;;;;23.70;14.70;;;;;;;9.37;100.00;101723.84;105488;1261;59804;-55
2024/02/24 10:32:41;;;;;;;17.90;10.60;;;;;;;9.37;100.00;101724.20;105749;1265;60054;-57
2024/02/24 10:35:10;;;;;;;7.90;5.00;;;;;;;9.38;100.00;101728.30;105804;1261;73464;-59
2024/02/24 10:37:37;;;;;;;7.70;3.00;;;;;;;9.42;100.00;101723.27;106064;1263;66830;-55
2024/02/24 10:40:08;;;;;;;5.00;3.00;;;;;;;9.44;100.00;101720.35;105903;1267;70953;-55
2024/02/24 10:42:35;;;;;;;15.80;10.20;;;;;;;9.45;100.00;101720.86;105562;1264;59953;-58
2024/02/24 10:45:06;;;;;;;16.50;13.30;;;;;;;9.47;100.00;101720.85;105516;1260;60479;-55
2024/02/24 10:47:36;;;;;;;11.10;8.90;;;;;;;9.49;100.00;101730.15;106075;1262;72272;-55
2024/02/24 10:50:10;;;;;;;12.60;8.30;;;;;;;9.52;100.00;101734.61;105625;1273;67726;-57
2024/02/24 10:52:38;;;;;;;9.70;3.90;;;;;;;9.55;100.00;101731.87;107131;1264;72727;-57
2024/02/24 10:55:05;;;;;;;6.60;4.80;;;;;;;9.58;100.00;101725.56;105486;1267;61423;-57
2024/02/24 10:57:35;;;;;;;7.70;4.80;;;;;;;9.62;100.00;101725.30;105435;1267;59720;-54
2024/02/24 11:00:25;;;;;;;5.50;4.00;;;;;;;9.66;100.00;101727.96;105439;1282;73175;-55
2024/02/24 11:02:53;;;;;;;7.00;2.80;;;;;;;9.71;100.00;101749.20;106179;1256;65645;-56
2024/02/24 11:05:20;;;;;;;4.70;2.40;;;;;;;9.76;100.00;101739.14;108812;1256;74402;-56
2024/02/24 11:07:47;;;;;;;5.80;2.80;;;;;;;9.78;100.00;101737.48;108779;1256;60184;-55
2024/02/24 11:10:17;;;;;;;4.30;2.20;;;;;;;9.81;100.00;101734.39;108775;1256;60107;-55
2024/02/24 11:12:51;;;;;;;4.50;2.80;;;;;;;9.83;100.00;101734.90;108688;1256;73985;-54
2024/02/24 11:15:21;;;;;;;6.10;2.30;;;;;;;9.87;100.00;101745.42;108673;1258;66756;-55
2024/02/24 11:17:53;;;;;;;3.80;1.90;;;;;;;9.91;100.00;101741.79;108854;1257;71562;-59
2024/02/24 11:20:33;;;;;;;3.80;3.50;;;;;;;9.93;100.00;101747.13;108786;1256;60457;-56